createdAt,value
2022-10-07T00:01:11.218Z,13.61
2022-10-07T00:03:41.645Z,13.58
2022-10-07T00:06:13.202Z,13.60
2022-10-07T00:08:43.042Z,13.56
2022-10-07T00:11:13.011Z,13.55
2022-10-07T00:13:42.675Z,13.35
2022-10-07T00:16:13.786Z,13.32
2022-10-07T00:18:43.494Z,13.21
2022-10-07T00:21:14.641Z,13.25
2022-10-07T00:23:43.857Z,13.20
2022-10-07T00:26:13.687Z,13.10
2022-10-07T00:28:41.904Z,13.03
2022-10-07T00:31:13.365Z,12.95
2022-10-07T00:33:43.756Z,12.97
2022-10-07T00:36:16.993Z,12.97
2022-10-07T00:38:45.218Z,12.92
2022-10-07T00:41:19.214Z,12.87
2022-10-07T00:43:48.066Z,12.86
2022-10-07T00:46:24.705Z,12.82
2022-10-07T00:48:55.463Z,12.88
2022-10-07T00:51:23.945Z,12.91
2022-10-07T00:53:56.756Z,12.93
2022-10-07T00:56:28.052Z,12.90
2022-10-07T00:58:56.937Z,12.89
2022-10-07T01:01:25.544Z,12.92
2022-10-07T01:03:55.878Z,12.92
2022-10-07T01:06:24.851Z,12.92
2022-10-07T01:08:55.611Z,12.92
2022-10-07T01:11:36.661Z,12.90
2022-10-07T01:14:10.559Z,12.92
2022-10-07T01:16:48.486Z,12.84
2022-10-07T01:19:44.044Z,12.69
2022-10-07T01:22:23.289Z,12.68
2022-10-07T01:25:04.571Z,12.69
2022-10-07T01:27:37.146Z,12.71
2022-10-07T01:30:08.807Z,12.69
2022-10-07T01:32:41.932Z,12.63
2022-10-07T01:35:15.091Z,12.54
2022-10-07T01:37:48.704Z,12.47
2022-10-07T01:40:21.751Z,12.50
2022-10-07T01:42:52.049Z,12.54
2022-10-07T01:45:23.869Z,12.55
2022-10-07T01:47:53.121Z,12.57
2022-10-07T01:50:26.535Z,12.57
2022-10-07T01:53:12.920Z,12.65
2022-10-07T01:55:55.503Z,12.84
2022-10-07T01:58:40.115Z,12.94
2022-10-07T02:01:23.980Z,12.89
2022-10-07T02:04:08.380Z,12.85
2022-10-07T02:06:44.558Z,12.85
2022-10-07T02:09:24.180Z,12.79
2022-10-07T02:11:57.550Z,12.81
2022-10-07T02:14:38.397Z,12.83
2022-10-07T02:17:11.404Z,12.82
2022-10-07T02:19:45.237Z,12.69
2022-10-07T02:22:14.814Z,12.67
2022-10-07T02:24:45.213Z,12.74
2022-10-07T02:27:18.068Z,12.64
2022-10-07T02:29:49.948Z,12.66
2022-10-07T02:32:21.881Z,12.56
2022-10-07T02:34:54.741Z,12.54
2022-10-07T02:37:27.156Z,12.47
2022-10-07T02:39:57.415Z,12.50
2022-10-07T02:42:33.789Z,12.49
2022-10-07T02:45:13.481Z,12.44
2022-10-07T02:47:48.202Z,12.53
2022-10-07T02:50:22.706Z,12.53
2022-10-07T02:52:55.958Z,12.57
2022-10-07T02:55:27.373Z,12.57
2022-10-07T02:58:00.187Z,12.61
2022-10-07T03:00:32.930Z,12.62
2022-10-07T03:03:03.299Z,12.58
2022-10-07T03:05:31.537Z,12.52
2022-10-07T03:08:04.022Z,12.57
2022-10-07T03:10:32.212Z,12.55
2022-10-07T03:13:00.469Z,12.52
2022-10-07T03:15:29.965Z,12.48
2022-10-07T03:17:58.138Z,12.40
2022-10-07T03:20:26.215Z,12.34
2022-10-07T03:22:54.357Z,12.29
2022-10-07T03:25:22.489Z,12.27
2022-10-07T03:27:50.529Z,12.30
2022-10-07T03:30:24.272Z,12.35
2022-10-07T03:32:55.103Z,12.40
2022-10-07T03:35:23.190Z,12.45
2022-10-07T03:37:51.292Z,12.49
2022-10-07T03:40:19.390Z,12.53
2022-10-07T03:42:48.101Z,12.57
2022-10-07T03:45:16.191Z,12.64
2022-10-07T03:47:44.514Z,12.59
2022-10-07T03:50:14.231Z,12.57
2022-10-07T03:52:42.478Z,12.54
2022-10-07T03:55:11.052Z,12.58
2022-10-07T03:57:55.476Z,12.49
2022-10-07T04:00:28.300Z,12.52
2022-10-07T04:02:56.787Z,12.54
2022-10-07T04:05:26.524Z,12.60
2022-10-07T04:07:54.836Z,12.62
2022-10-07T04:10:22.995Z,12.64
2022-10-07T04:12:51.455Z,12.68
2022-10-07T04:15:20.256Z,12.69
2022-10-07T04:17:49.888Z,12.76
2022-10-07T04:20:18.532Z,12.82
2022-10-07T04:22:48.095Z,12.90
2022-10-07T04:25:33.723Z,12.95
2022-10-07T04:28:03.709Z,13.06
2022-10-07T04:30:34.915Z,13.20
2022-10-07T04:33:03.841Z,13.30
2022-10-07T04:35:31.951Z,13.31
2022-10-07T04:38:01.511Z,13.30
2022-10-07T04:40:31.360Z,13.44
2022-10-07T04:43:17.103Z,13.53
2022-10-07T04:45:45.265Z,13.72
2022-10-07T04:48:13.660Z,13.82
2022-10-07T04:50:42.054Z,13.95
2022-10-07T04:53:14.449Z,14.13
2022-10-07T04:55:44.039Z,14.32
2022-10-07T04:58:12.448Z,14.35
2022-10-07T05:00:45.860Z,14.57
2022-10-07T05:03:14.835Z,14.69
2022-10-07T05:05:44.373Z,14.78
2022-10-07T05:08:14.483Z,14.91
2022-10-07T05:10:43.679Z,14.98
2022-10-07T05:13:14.603Z,15.23
2022-10-07T05:15:50.076Z,15.38
2022-10-07T05:18:19.457Z,15.57
2022-10-07T05:20:48.565Z,15.82
2022-10-07T05:23:22.298Z,15.80
2022-10-07T05:25:59.482Z,15.92
2022-10-07T05:28:28.140Z,16.08
2022-10-07T05:31:04.157Z,16.01
2022-10-07T05:33:32.672Z,16.09
2022-10-07T05:36:01.332Z,16.41
2022-10-07T05:38:30.897Z,16.42
2022-10-07T05:41:00.622Z,16.55
2022-10-07T05:43:29.895Z,16.95
2022-10-07T05:46:02.548Z,17.27
2022-10-07T05:48:36.629Z,17.29
2022-10-07T05:51:07.753Z,17.35
2022-10-07T05:53:41.359Z,17.04
2022-10-07T05:56:11.020Z,16.88
2022-10-07T05:58:40.005Z,16.86
2022-10-07T06:01:13.933Z,16.94
2022-10-07T06:03:42.556Z,16.89
2022-10-07T06:06:11.322Z,16.95
2022-10-07T06:08:41.118Z,16.77
2022-10-07T06:11:29.561Z,16.79
2022-10-07T06:13:58.089Z,17.14
2022-10-07T06:16:27.124Z,17.17
2022-10-07T06:18:56.048Z,17.72
2022-10-07T06:21:28.390Z,18.05
2022-10-07T06:23:59.126Z,18.40
2022-10-07T06:26:27.297Z,18.40
2022-10-07T06:28:55.412Z,18.32
2022-10-07T06:31:25.801Z,18.26
2022-10-07T06:33:54.408Z,18.66
2022-10-07T06:36:22.607Z,18.60
2022-10-07T06:38:52.858Z,18.27
2022-10-07T06:41:23.616Z,17.57
2022-10-07T06:43:57.431Z,17.63
2022-10-07T06:46:25.700Z,17.44
2022-10-07T06:48:54.172Z,17.53
2022-10-07T06:51:23.407Z,17.42
2022-10-07T06:53:53.956Z,17.53
2022-10-07T06:56:23.434Z,17.70
2022-10-07T06:58:51.732Z,17.90
2022-10-07T07:01:20.288Z,17.77
2022-10-07T07:03:48.885Z,17.76
2022-10-07T07:06:17.047Z,17.69
2022-10-07T07:08:46.083Z,17.37
2022-10-07T07:11:32.818Z,17.38
2022-10-07T07:14:03.653Z,17.33
2022-10-07T07:16:32.177Z,17.46
2022-10-07T07:19:03.039Z,17.65
2022-10-07T07:21:31.760Z,17.61
2022-10-07T07:24:01.418Z,17.62
2022-10-07T07:26:30.648Z,17.38
2022-10-07T07:29:01.414Z,17.59
2022-10-07T07:31:33.219Z,17.91
2022-10-07T07:34:04.023Z,17.76
2022-10-07T07:36:33.337Z,17.99
2022-10-07T07:39:03.982Z,18.06
2022-10-07T07:41:35.260Z,17.94
2022-10-07T07:44:07.320Z,18.27
2022-10-07T07:46:41.808Z,18.26
2022-10-07T07:49:11.016Z,18.21
2022-10-07T07:51:39.939Z,18.34
2022-10-07T07:54:07.974Z,17.96
2022-10-07T07:56:36.149Z,18.08
2022-10-07T07:59:06.185Z,18.15
2022-10-07T08:01:35.538Z,18.31
2022-10-07T08:04:06.494Z,18.55
2022-10-07T08:06:35.312Z,18.41
2022-10-07T08:09:03.619Z,18.43
2022-10-07T08:11:33.096Z,18.50
2022-10-07T08:14:03.286Z,18.46
2022-10-07T08:16:32.345Z,18.41
2022-10-07T08:19:10.168Z,18.39
2022-10-07T08:21:38.556Z,18.41
2022-10-07T08:24:09.952Z,18.33
2022-10-07T08:26:38.903Z,18.30
2022-10-07T08:29:07.046Z,18.48
2022-10-07T08:31:35.800Z,18.41
2022-10-07T08:34:06.454Z,18.40
2022-10-07T08:36:35.984Z,18.48
2022-10-07T08:39:05.783Z,18.57
2022-10-07T08:41:57.855Z,18.29
2022-10-07T08:44:29.971Z,18.37
2022-10-07T08:47:06.420Z,18.48
2022-10-07T08:49:40.449Z,18.34
2022-10-07T08:52:26.612Z,18.51
2022-10-07T08:54:54.883Z,18.55
2022-10-07T08:57:38.835Z,18.77
2022-10-07T09:00:09.199Z,18.98
2022-10-07T09:02:52.650Z,18.94
2022-10-07T09:05:26.413Z,18.92
2022-10-07T09:07:59.999Z,18.93
2022-10-07T09:10:34.349Z,19.05
2022-10-07T09:13:05.905Z,18.84
2022-10-07T09:15:42.653Z,18.76
2022-10-07T09:18:20.429Z,18.87
2022-10-07T09:20:53.731Z,18.88
2022-10-07T09:23:26.158Z,19.00
2022-10-07T09:25:54.318Z,18.77
2022-10-07T09:28:27.440Z,18.89
2022-10-07T09:30:55.748Z,18.90
2022-10-07T09:33:28.022Z,18.95
2022-10-07T09:35:58.395Z,19.02
2022-10-07T09:38:34.110Z,19.16
2022-10-07T09:41:17.531Z,19.10
2022-10-07T09:43:57.170Z,19.06
2022-10-07T09:46:53.528Z,19.06
2022-10-07T09:49:32.837Z,19.13
2022-10-07T09:52:02.400Z,19.09
2022-10-07T09:54:34.023Z,19.18
2022-10-07T09:57:04.248Z,19.17
2022-10-07T09:59:33.805Z,19.06
2022-10-07T10:02:13.070Z,19.17
2022-10-07T10:04:48.390Z,19.10
2022-10-07T10:07:21.435Z,19.19
2022-10-07T10:09:53.207Z,19.35
2022-10-07T10:12:22.967Z,19.35
2022-10-07T10:14:53.785Z,19.21
2022-10-07T10:17:34.657Z,19.22
2022-10-07T10:20:36.140Z,19.08
2022-10-07T10:23:25.273Z,19.26
2022-10-07T10:26:22.691Z,19.31
2022-10-07T10:29:00.805Z,19.39
2022-10-07T10:31:39.803Z,19.25
2022-10-07T10:34:28.010Z,19.26
2022-10-07T10:37:03.479Z,19.36
2022-10-07T10:39:44.888Z,19.23
2022-10-07T10:42:21.487Z,19.34
2022-10-07T10:45:16.260Z,19.42
2022-10-07T10:47:56.489Z,19.45
2022-10-07T10:50:31.635Z,19.33
2022-10-07T10:53:11.281Z,19.47
2022-10-07T10:56:04.829Z,19.33
2022-10-07T10:58:47.752Z,19.02
2022-10-07T11:01:28.035Z,19.16
2022-10-07T11:04:21.643Z,19.13
2022-10-07T11:06:56.715Z,18.84
2022-10-07T11:09:34.969Z,18.92
2022-10-07T11:12:07.104Z,18.98
2022-10-07T11:14:48.606Z,18.84
2022-10-07T11:17:18.638Z,18.72
2022-10-07T11:19:57.627Z,18.70
2022-10-07T11:22:39.310Z,18.66
2022-10-07T11:25:18.943Z,18.64
2022-10-07T11:27:53.403Z,18.49
2022-10-07T11:30:24.771Z,18.59
2022-10-07T11:33:00.198Z,18.42
2022-10-07T11:35:32.865Z,18.39
2022-10-07T11:38:08.093Z,18.43
2022-10-07T11:40:42.534Z,18.56
2022-10-07T11:43:18.526Z,18.36
2022-10-07T11:45:52.654Z,18.47
2022-10-07T11:48:24.490Z,18.53
2022-10-07T11:50:56.315Z,18.62
2022-10-07T11:53:27.708Z,18.46
2022-10-07T11:56:01.147Z,18.47
2022-10-07T11:58:33.047Z,18.36
2022-10-07T12:01:48.577Z,18.45
2022-10-07T12:04:38.411Z,18.36
2022-10-07T12:07:36.994Z,18.30
2022-10-07T12:10:29.980Z,18.44
2022-10-07T12:13:01.146Z,18.35
2022-10-07T12:15:39.132Z,18.36
2022-10-07T12:18:28.570Z,18.25
2022-10-07T12:21:15.160Z,18.20
2022-10-07T12:23:44.918Z,18.28
2022-10-07T12:26:52.465Z,18.41
2022-10-07T12:29:33.699Z,18.45
2022-10-07T12:32:02.394Z,18.48
2022-10-07T12:34:38.846Z,18.60
2022-10-07T12:37:52.539Z,18.63
2022-10-07T12:40:31.154Z,18.44
2022-10-07T12:43:10.767Z,18.37
2022-10-07T12:45:43.556Z,18.56
2022-10-07T12:48:18.222Z,18.55
2022-10-07T12:50:50.972Z,18.59
2022-10-07T12:53:20.389Z,18.62
2022-10-07T12:55:50.505Z,18.53
2022-10-07T12:59:05.645Z,18.48
2022-10-07T13:01:48.038Z,18.48
2022-10-07T13:04:38.665Z,18.52
2022-10-07T13:07:40.863Z,18.55
2022-10-07T13:10:42.280Z,18.66
2022-10-07T13:13:16.454Z,18.67
2022-10-07T13:15:47.711Z,18.75
2022-10-07T13:18:21.990Z,18.78
2022-10-07T13:21:18.389Z,18.88
2022-10-07T13:23:52.782Z,18.97
2022-10-07T13:26:22.873Z,19.04
2022-10-07T13:28:53.721Z,19.05
2022-10-07T13:31:25.358Z,19.02
2022-10-07T13:33:54.861Z,19.07
2022-10-07T13:36:25.231Z,19.08
2022-10-07T13:39:10.528Z,19.08
2022-10-07T13:41:39.674Z,19.10
2022-10-07T13:44:07.994Z,19.07
2022-10-07T13:46:37.545Z,19.00
2022-10-07T13:49:06.551Z,19.03
2022-10-07T13:51:36.989Z,18.89
2022-10-07T13:54:09.414Z,18.88
2022-10-07T13:56:41.674Z,18.87
2022-10-07T13:59:16.037Z,18.79
2022-10-07T14:01:44.424Z,18.81
2022-10-07T14:04:20.993Z,18.75
2022-10-07T14:07:00.290Z,18.67
2022-10-07T14:09:44.053Z,18.45
2022-10-07T14:12:15.884Z,18.37
2022-10-07T14:14:46.321Z,18.36
2022-10-07T14:17:24.870Z,18.35
2022-10-07T14:19:54.926Z,18.34
2022-10-07T14:22:30.239Z,18.30
2022-10-07T14:25:03.105Z,18.21
2022-10-07T14:27:54.117Z,18.14
2022-10-07T14:30:51.989Z,18.13
2022-10-07T14:33:44.226Z,18.15
2022-10-07T14:36:14.396Z,18.08
2022-10-07T14:38:43.303Z,18.06
2022-10-07T14:41:13.788Z,18.03
2022-10-07T14:43:46.334Z,17.95
2022-10-07T14:46:19.019Z,17.85
2022-10-07T14:48:47.872Z,17.78
2022-10-07T14:51:18.731Z,17.72
2022-10-07T14:53:50.297Z,17.60
2022-10-07T14:56:26.770Z,17.52
2022-10-07T14:58:56.318Z,17.48
2022-10-07T15:01:24.570Z,17.40
2022-10-07T15:03:52.849Z,17.36
2022-10-07T15:06:21.910Z,17.25
2022-10-07T15:08:50.307Z,17.20
2022-10-07T15:11:21.901Z,17.21
2022-10-07T15:13:51.039Z,17.15
2022-10-07T15:16:21.507Z,17.08
2022-10-07T15:18:52.772Z,17.03
2022-10-07T15:21:22.074Z,16.93
2022-10-07T15:23:52.804Z,16.87
2022-10-07T15:26:24.691Z,16.83
2022-10-07T15:28:55.289Z,16.73
2022-10-07T15:31:24.466Z,16.71
2022-10-07T15:33:57.985Z,16.58
2022-10-07T15:36:29.174Z,16.55
2022-10-07T15:39:02.094Z,16.46
2022-10-07T15:41:34.564Z,16.32
2022-10-07T15:44:04.775Z,16.28
2022-10-07T15:46:33.074Z,16.25
2022-10-07T15:49:01.692Z,16.24
2022-10-07T15:51:31.197Z,16.12
2022-10-07T15:53:59.650Z,16.05
2022-10-07T15:56:27.851Z,15.89
2022-10-07T15:58:58.685Z,15.83
2022-10-07T16:01:28.738Z,15.82
2022-10-07T16:03:57.149Z,15.80
2022-10-07T16:06:27.024Z,15.84
2022-10-07T16:08:56.894Z,15.87
2022-10-07T16:11:26.250Z,15.75
2022-10-07T16:13:54.530Z,15.80
2022-10-07T16:16:26.366Z,15.77
2022-10-07T16:18:56.009Z,15.79
2022-10-07T16:21:28.014Z,15.70
2022-10-07T16:23:58.896Z,15.73
2022-10-07T16:26:30.393Z,15.68
2022-10-07T16:29:18.755Z,15.65
2022-10-07T16:31:49.320Z,15.64
2022-10-07T16:34:19.815Z,15.72
2022-10-07T16:36:49.243Z,15.75
2022-10-07T16:39:19.164Z,15.69
2022-10-07T16:41:48.385Z,15.61
2022-10-07T16:44:17.159Z,15.51
2022-10-07T16:46:45.338Z,15.42
2022-10-07T16:49:17.850Z,15.41
2022-10-07T16:51:46.870Z,15.38
2022-10-07T16:54:17.438Z,15.31
2022-10-07T16:56:48.244Z,15.28
2022-10-07T16:59:22.526Z,15.22
2022-10-07T17:01:52.972Z,15.16
2022-10-07T17:04:23.042Z,15.16
2022-10-07T17:06:51.210Z,15.21
2022-10-07T17:09:19.726Z,15.21
2022-10-07T17:11:48.099Z,15.19
2022-10-07T17:14:18.329Z,15.12
2022-10-07T17:16:48.167Z,15.12
2022-10-07T17:19:18.883Z,15.13
2022-10-07T17:21:50.282Z,15.14
2022-10-07T17:24:20.584Z,15.14
2022-10-07T17:26:49.027Z,15.15
2022-10-07T17:29:19.529Z,15.04
2022-10-07T17:31:50.634Z,15.13
2022-10-07T17:34:20.720Z,15.10
2022-10-07T17:36:51.695Z,15.12
2022-10-07T17:39:20.318Z,15.17
2022-10-07T17:41:48.869Z,15.12
2022-10-07T17:44:17.390Z,15.11
2022-10-07T17:46:45.660Z,15.15
2022-10-07T17:49:14.544Z,15.20
2022-10-07T17:51:44.093Z,15.13
2022-10-07T17:54:14.651Z,15.14
2022-10-07T17:56:45.208Z,15.15
2022-10-07T17:59:14.416Z,15.13
2022-10-07T18:01:42.999Z,15.18
2022-10-07T18:04:13.549Z,15.19
2022-10-07T18:06:43.415Z,15.19
2022-10-07T18:09:18.692Z,15.15
2022-10-07T18:12:04.541Z,15.05
2022-10-07T18:14:53.508Z,15.07
2022-10-07T18:17:22.596Z,15.07
2022-10-07T18:19:50.664Z,15.10
2022-10-07T18:22:19.413Z,15.12
2022-10-07T18:24:49.835Z,15.10
2022-10-07T18:27:17.931Z,15.12
2022-10-07T18:29:46.083Z,15.09
2022-10-07T18:32:14.184Z,15.10
2022-10-07T18:34:42.320Z,15.14
2022-10-07T18:37:10.731Z,15.05
2022-10-07T18:39:39.081Z,14.99
2022-10-07T18:42:08.749Z,15.11
2022-10-07T18:44:36.957Z,15.05
2022-10-07T18:47:05.221Z,14.99
2022-10-07T18:49:33.281Z,14.95
2022-10-07T18:52:01.511Z,14.98
2022-10-07T18:54:30.030Z,14.97
2022-10-07T18:56:58.134Z,14.96
2022-10-07T18:59:27.975Z,14.98
2022-10-07T19:01:56.219Z,15.02
2022-10-07T19:04:24.446Z,14.93
2022-10-07T19:06:52.591Z,14.96
2022-10-07T19:09:22.333Z,14.96
2022-10-07T19:11:51.030Z,14.95
2022-10-07T19:14:18.346Z,14.96
2022-10-07T19:16:50.151Z,14.92
2022-10-07T19:19:20.322Z,14.94
2022-10-07T19:21:50.728Z,14.92
2022-10-07T19:24:19.073Z,14.86
2022-10-07T19:26:49.995Z,14.86
2022-10-07T19:29:19.376Z,14.87
2022-10-07T19:31:50.219Z,14.89
2022-10-07T19:34:21.195Z,14.86
2022-10-07T19:36:50.059Z,14.84
2022-10-07T19:39:20.070Z,14.91
2022-10-07T19:41:48.919Z,14.89
2022-10-07T19:44:17.341Z,14.86
2022-10-07T19:46:45.582Z,14.85
2022-10-07T19:49:15.342Z,14.89
2022-10-07T19:51:44.880Z,14.84
2022-10-07T19:54:13.211Z,14.87
2022-10-07T19:56:42.235Z,14.87
2022-10-07T19:59:12.246Z,14.76
2022-10-07T20:01:42.573Z,14.79
2022-10-07T20:04:13.399Z,14.80
2022-10-07T20:06:43.273Z,14.74
2022-10-07T20:09:14.051Z,14.75
2022-10-07T20:11:42.530Z,14.74
2022-10-07T20:14:11.483Z,14.70
2022-10-07T20:16:40.138Z,14.67
2022-10-07T20:19:11.593Z,14.74
2022-10-07T20:21:40.395Z,14.74
2022-10-07T20:24:10.259Z,14.75
2022-10-07T20:26:39.619Z,14.65
2022-10-07T20:29:10.338Z,14.77
2022-10-07T20:31:40.112Z,14.75
2022-10-07T20:34:09.857Z,14.76
2022-10-07T20:36:41.397Z,14.74
2022-10-07T20:39:34.137Z,14.76
2022-10-07T20:42:20.061Z,14.76
2022-10-07T20:44:49.338Z,14.77
2022-10-07T20:47:17.981Z,14.68
2022-10-07T20:49:48.361Z,14.63
2022-10-07T20:52:19.372Z,14.61
2022-10-07T20:54:49.285Z,14.60
2022-10-07T20:57:19.052Z,14.59
2022-10-07T20:59:47.326Z,14.55
2022-10-07T21:02:17.543Z,14.58
2022-10-07T21:04:47.140Z,14.49
2022-10-07T21:07:15.577Z,14.63
2022-10-07T21:09:43.654Z,14.67
2022-10-07T21:12:15.071Z,14.62
2022-10-07T21:14:44.322Z,14.60
2022-10-07T21:17:13.264Z,14.64
2022-10-07T21:19:41.862Z,14.61
2022-10-07T21:22:10.646Z,14.53
2022-10-07T21:24:38.747Z,14.53
2022-10-07T21:27:08.590Z,14.53
2022-10-07T21:29:40.986Z,14.54
2022-10-07T21:32:10.050Z,14.57
2022-10-07T21:34:38.531Z,14.50
2022-10-07T21:37:06.730Z,14.43
2022-10-07T21:39:34.900Z,14.50
2022-10-07T21:42:03.205Z,14.44
2022-10-07T21:44:33.469Z,14.40
2022-10-07T21:47:04.952Z,14.42
2022-10-07T21:49:33.172Z,14.39
2022-10-07T21:52:01.332Z,14.37
2022-10-07T21:54:30.391Z,14.34
2022-10-07T21:56:58.948Z,14.32
2022-10-07T21:59:27.214Z,14.29
2022-10-07T22:01:55.437Z,14.28
2022-10-07T22:04:25.168Z,14.29
2022-10-07T22:07:10.790Z,14.29
2022-10-07T22:09:38.943Z,14.33
2022-10-07T22:12:07.325Z,14.28
2022-10-07T22:14:35.554Z,14.22
2022-10-07T22:17:03.925Z,14.18
2022-10-07T22:19:33.405Z,14.18
2022-10-07T22:22:01.538Z,14.20
2022-10-07T22:24:29.895Z,14.18
2022-10-07T22:26:58.548Z,14.18
2022-10-07T22:29:26.992Z,14.18
2022-10-07T22:31:55.440Z,14.15
2022-10-07T22:34:42.517Z,14.15
2022-10-07T22:37:12.020Z,14.07
2022-10-07T22:39:41.214Z,14.03
2022-10-07T22:42:09.558Z,14.03
2022-10-07T22:44:37.654Z,14.07
2022-10-07T22:47:05.893Z,14.04
2022-10-07T22:49:33.991Z,14.08
2022-10-07T22:52:02.152Z,14.01
2022-10-07T22:54:31.623Z,14.06
2022-10-07T22:56:59.921Z,13.98
2022-10-07T22:59:28.037Z,13.97
2022-10-07T23:01:56.146Z,14.00
2022-10-07T23:04:24.278Z,13.99
2022-10-07T23:06:53.009Z,13.90
2022-10-07T23:09:21.131Z,13.90
2022-10-07T23:11:50.683Z,13.87
2022-10-07T23:14:19.127Z,13.85
2022-10-07T23:16:47.330Z,13.81
2022-10-07T23:19:15.494Z,13.76
2022-10-07T23:21:44.700Z,13.76
2022-10-07T23:24:14.663Z,13.77
2022-10-07T23:26:46.133Z,13.80
2022-10-07T23:29:15.865Z,13.82
2022-10-07T23:31:45.208Z,13.74
2022-10-07T23:34:13.926Z,13.73
2022-10-07T23:36:42.305Z,13.78
2022-10-07T23:39:10.459Z,13.81
2022-10-07T23:41:38.554Z,13.79
2022-10-07T23:44:07.041Z,13.74
2022-10-07T23:46:36.805Z,13.74
2022-10-07T23:49:05.428Z,13.76
2022-10-07T23:51:34.423Z,13.76
2022-10-07T23:54:04.431Z,13.75
2022-10-07T23:56:33.606Z,13.73
2022-10-07T23:59:02.688Z,13.76
